sensor_id;sensor_type;location;lat;lon;timestamp;pressure;altitude;pressure_sealevel;temperature;humidity
84267;BME280;74414;51.098;13.716;2024-03-02T00:02:23;98950.59;;;7.88;88.16
84267;BME280;74414;51.098;13.716;2024-03-02T00:04:48;98952.59;;;7.91;88.05
84267;BME280;74414;51.098;13.716;2024-03-02T00:07:14;98950.25;;;7.93;88.30
84267;BME280;74414;51.098;13.716;2024-03-02T00:09:40;98942.41;;;7.95;88.21
84267;BME280;74414;51.098;13.716;2024-03-02T00:12:05;98942.78;;;7.94;88.20
84267;BME280;74414;51.098;13.716;2024-03-02T00:14:31;98949.47;;;7.96;88.21
84267;BME280;74414;51.098;13.716;2024-03-02T00:16:56;98932.63;;;8.01;88.28
84267;BME280;74414;51.098;13.716;2024-03-02T00:19:22;98931.84;;;8.04;88.00
84267;BME280;74414;51.098;13.716;2024-03-02T00:21:48;98935.03;;;8.06;88.32
84267;BME280;74414;51.098;13.716;2024-03-02T00:24:34;98933.03;;;8.03;88.11
84267;BME280;74414;51.098;13.716;2024-03-02T00:26:59;98937.72;;;7.99;88.10
84267;BME280;74414;51.098;13.716;2024-03-02T00:29:25;98937.69;;;7.96;88.09
84267;BME280;74414;51.098;13.716;2024-03-02T00:31:50;98938.84;;;7.95;88.19
84267;BME280;74414;51.098;13.716;2024-03-02T00:34:17;98931.38;;;7.95;88.20
84267;BME280;74414;51.098;13.716;2024-03-02T00:36:42;98936.88;;;7.95;88.33
84267;BME280;74414;51.098;13.716;2024-03-02T00:39:08;98937.72;;;7.99;88.38
84267;BME280;74414;51.098;13.716;2024-03-02T00:41:33;98938.94;;;8.02;88.57
84267;BME280;74414;51.098;13.716;2024-03-02T00:43:59;98939.41;;;8.07;88.52
84267;BME280;74414;51.098;13.716;2024-03-02T00:46:27;98942.59;;;8.13;88.43
84267;BME280;74414;51.098;13.716;2024-03-02T00:49:02;98937.50;;;8.15;88.52
84267;BME280;74414;51.098;13.716;2024-03-02T00:51:30;98948.16;;;8.16;88.44
84267;BME280;74414;51.098;13.716;2024-03-02T00:53:58;98941.50;;;8.17;88.37
84267;BME280;74414;51.098;13.716;2024-03-02T00:56:24;98948.19;;;8.20;88.48
84267;BME280;74414;51.098;13.716;2024-03-02T00:58:50;98940.72;;;8.20;88.25
84267;BME280;74414;51.098;13.716;2024-03-02T01:01:16;98945.81;;;8.18;88.32
84267;BME280;74414;51.098;13.716;2024-03-02T01:03:42;98950.56;;;8.21;88.24
84267;BME280;74414;51.098;13.716;2024-03-02T01:06:08;98941.53;;;8.21;88.24
84267;BME280;74414;51.098;13.716;2024-03-02T01:08:35;98944.34;;;8.24;88.31
84267;BME280;74414;51.098;13.716;2024-03-02T01:11:01;98945.56;;;8.27;88.24
84267;BME280;74414;51.098;13.716;2024-03-02T01:13:27;98945.91;;;8.25;88.15
84267;BME280;74414;51.098;13.716;2024-03-02T01:15:53;98941.63;;;8.28;88.32
84267;BME280;74414;51.098;13.716;2024-03-02T01:18:18;98940.47;;;8.29;88.21
84267;BME280;74414;51.098;13.716;2024-03-02T01:20:44;98936.94;;;8.32;88.14
84267;BME280;74414;51.098;13.716;2024-03-02T01:23:09;98934.19;;;8.32;88.21
84267;BME280;74414;51.098;13.716;2024-03-02T01:25:35;98927.81;;;8.28;88.15
84267;BME280;74414;51.098;13.716;2024-03-02T01:28:01;98919.94;;;8.27;88.17
84267;BME280;74414;51.098;13.716;2024-03-02T01:30:26;98917.59;;;8.29;87.99
84267;BME280;74414;51.098;13.716;2024-03-02T01:32:52;98926.28;;;8.31;87.96
84267;BME280;74414;51.098;13.716;2024-03-02T01:35:17;98922.31;;;8.28;87.80
84267;BME280;74414;51.098;13.716;2024-03-02T01:37:43;98923.09;;;8.29;87.96
84267;BME280;74414;51.098;13.716;2024-03-02T01:40:08;98930.16;;;8.26;87.82
84267;BME280;74414;51.098;13.716;2024-03-02T01:42:38;98924.66;;;8.26;87.90
84267;BME280;74414;51.098;13.716;2024-03-02T01:45:08;98929.28;;;8.18;87.91
84267;BME280;74414;51.098;13.716;2024-03-02T01:47:34;98933.91;;;8.11;88.12
84267;BME280;74414;51.098;13.716;2024-03-02T01:50:00;98929.13;;;8.08;88.19
84267;BME280;74414;51.098;13.716;2024-03-02T01:52:26;98930.78;;;8.12;88.24
84267;BME280;74414;51.098;13.716;2024-03-02T01:54:51;98933.94;;;8.14;88.34
84267;BME280;74414;51.098;13.716;2024-03-02T01:57:17;98932.38;;;8.13;88.56
84267;BME280;74414;51.098;13.716;2024-03-02T01:59:43;98928.00;;;8.12;88.35
84267;BME280;74414;51.098;13.716;2024-03-02T02:02:08;98931.53;;;8.09;88.55
84267;BME280;74414;51.098;13.716;2024-03-02T02:04:34;98938.25;;;8.12;88.49
84267;BME280;74414;51.098;13.716;2024-03-02T02:06:59;98928.84;;;8.16;88.57
84267;BME280;74414;51.098;13.716;2024-03-02T02:09:25;98930.50;;;8.21;88.69
84267;BME280;74414;51.098;13.716;2024-03-02T02:11:51;98921.00;;;8.18;88.60
84267;BME280;74414;51.098;13.716;2024-03-02T02:14:17;98913.44;;;8.12;88.44
84267;BME280;74414;51.098;13.716;2024-03-02T02:16:43;98915.75;;;8.06;88.44
84267;BME280;74414;51.098;13.716;2024-03-02T02:19:08;98916.94;;;8.09;88.64
84267;BME280;74414;51.098;13.716;2024-03-02T02:21:35;98910.66;;;8.12;88.74
84267;BME280;74414;51.098;13.716;2024-03-02T02:24:00;98907.56;;;8.13;88.64
84267;BME280;74414;51.098;13.716;2024-03-02T02:26:28;98910.75;;;8.15;88.72
84267;BME280;74414;51.098;13.716;2024-03-02T02:28:54;98916.28;;;8.19;88.79
84267;BME280;74414;51.098;13.716;2024-03-02T02:31:20;98917.81;;;8.16;88.62
84267;BME280;74414;51.098;13.716;2024-03-02T02:33:45;98922.19;;;8.17;88.60
84267;BME280;74414;51.098;13.716;2024-03-02T02:36:11;98918.66;;;8.20;88.67
84267;BME280;74414;51.098;13.716;2024-03-02T02:38:40;98925.03;;;8.24;88.66
84267;BME280;74414;51.098;13.716;2024-03-02T02:41:07;98919.16;;;8.30;88.71
84267;BME280;74414;51.098;13.716;2024-03-02T02:43:33;98928.63;;;8.29;88.67
84267;BME280;74414;51.098;13.716;2024-03-02T02:45:58;98925.03;;;8.24;88.33
84267;BME280;74414;51.098;13.716;2024-03-02T02:48:23;98925.31;;;8.19;88.42
84267;BME280;74414;51.098;13.716;2024-03-02T02:50:49;98922.19;;;8.17;88.40
84267;BME280;74414;51.098;13.716;2024-03-02T02:53:15;98918.66;;;8.20;88.48
84267;BME280;74414;51.098;13.716;2024-03-02T02:55:41;98921.84;;;8.22;88.48
84267;BME280;74414;51.098;13.716;2024-03-02T02:58:09;98913.63;;;8.26;88.42
84267;BME280;74414;51.098;13.716;2024-03-02T03:00:34;98914.41;;;8.27;88.38
84267;BME280;74414;51.098;13.716;2024-03-02T03:03:00;98913.56;;;8.22;88.40
84267;BME280;74414;51.098;13.716;2024-03-02T03:05:25;98914.34;;;8.23;88.37
84267;BME280;74414;51.098;13.716;2024-03-02T03:07:52;98912.81;;;8.25;88.36
84267;BME280;74414;51.098;13.716;2024-03-02T03:10:17;98919.06;;;8.22;88.24
84267;BME280;74414;51.098;13.716;2024-03-02T03:12:43;98908.41;;;8.17;88.20
84267;BME280;74414;51.098;13.716;2024-03-02T03:15:09;98907.22;;;8.18;88.30
84267;BME280;74414;51.098;13.716;2024-03-02T03:17:35;98900.16;;;8.21;88.45
84267;BME280;74414;51.098;13.716;2024-03-02T03:20:02;98904.84;;;8.17;88.48
84267;BME280;74414;51.098;13.716;2024-03-02T03:22:30;98904.81;;;8.13;88.46
84267;BME280;74414;51.098;13.716;2024-03-02T03:24:56;98910.66;;;8.12;88.47
84267;BME280;74414;51.098;13.716;2024-03-02T03:27:22;98906.31;;;8.07;88.49
84267;BME280;74414;51.098;13.716;2024-03-02T03:29:48;98910.25;;;8.10;88.55
84267;BME280;74414;51.098;13.716;2024-03-02T03:32:14;98907.50;;;8.10;88.60
84267;BME280;74414;51.098;13.716;2024-03-02T03:34:40;98900.38;;;8.05;88.58
84267;BME280;74414;51.098;13.716;2024-03-02T03:37:05;98900.75;;;8.04;88.75
84267;BME280;74414;51.098;13.716;2024-03-02T03:39:31;98915.84;;;8.13;88.82
84267;BME280;74414;51.098;13.716;2024-03-02T03:41:59;98913.56;;;8.22;88.75
84267;BME280;74414;51.098;13.716;2024-03-02T03:44:24;98917.88;;;8.23;88.69
84267;BME280;74414;51.098;13.716;2024-03-02T03:46:50;98908.84;;;8.23;88.83
84267;BME280;74414;51.098;13.716;2024-03-02T03:49:15;98904.88;;;8.20;88.77
84267;BME280;74414;51.098;13.716;2024-03-02T03:51:40;98902.88;;;8.17;88.65
84267;BME280;74414;51.098;13.716;2024-03-02T03:54:05;98905.63;;;8.17;88.43
84267;BME280;74414;51.098;13.716;2024-03-02T03:56:31;98900.44;;;8.12;88.65
84267;BME280;74414;51.098;13.716;2024-03-02T03:58:57;98900.75;;;8.04;88.53
84267;BME280;74414;51.098;13.716;2024-03-02T04:01:22;98895.16;;;7.97;88.54
84267;BME280;74414;51.098;13.716;2024-03-02T04:03:48;98890.00;;;7.92;88.61
84267;BME280;74414;51.098;13.716;2024-03-02T04:06:14;98897.47;;;7.91;88.55
84267;BME280;74414;51.098;13.716;2024-03-02T04:08:41;98904.56;;;7.92;88.68
84267;BME280;74414;51.098;13.716;2024-03-02T04:11:07;98907.31;;;7.92;88.87
84267;BME280;74414;51.098;13.716;2024-03-02T04:13:33;98907.38;;;7.96;88.83
84267;BME280;74414;51.098;13.716;2024-03-02T04:15:58;98920.38;;;7.99;89.04
84267;BME280;74414;51.098;13.716;2024-03-02T04:18:24;98924.34;;;8.01;89.06
84267;BME280;74414;51.098;13.716;2024-03-02T04:20:49;98924.41;;;8.05;88.98
84267;BME280;74414;51.098;13.716;2024-03-02T04:23:14;98917.31;;;8.04;88.96
84267;BME280;74414;51.098;13.716;2024-03-02T04:25:40;98917.72;;;8.06;89.17
84267;BME280;74414;51.098;13.716;2024-03-02T04:28:05;98918.91;;;8.08;88.93
84267;BME280;74414;51.098;13.716;2024-03-02T04:30:30;98923.75;;;8.18;89.04
84267;BME280;74414;51.098;13.716;2024-03-02T04:32:56;98925.03;;;8.24;88.83
84267;BME280;74414;51.098;13.716;2024-03-02T04:35:22;98925.03;;;8.24;89.06
84267;BME280;74414;51.098;13.716;2024-03-02T04:37:48;98920.66;;;8.23;88.72
84267;BME280;74414;51.098;13.716;2024-03-02T04:40:13;98924.16;;;8.20;88.68
84267;BME280;74414;51.098;13.716;2024-03-02T04:42:39;98927.31;;;8.19;88.68
84267;BME280;74414;51.098;13.716;2024-03-02T04:45:05;98931.66;;;8.20;88.61
84267;BME280;74414;51.098;13.716;2024-03-02T04:47:30;98937.53;;;8.18;88.65
84267;BME280;74414;51.098;13.716;2024-03-02T04:49:56;98945.00;;;8.18;88.57
84267;BME280;74414;51.098;13.716;2024-03-02T04:52:21;98945.06;;;8.21;88.60
84267;BME280;74414;51.098;13.716;2024-03-02T04:54:46;98950.91;;;8.16;88.56
84267;BME280;74414;51.098;13.716;2024-03-02T04:57:30;98959.13;;;8.09;88.44
84267;BME280;74414;51.098;13.716;2024-03-02T04:59:56;98955.16;;;8.10;88.50
84267;BME280;74414;51.098;13.716;2024-03-02T05:02:21;98958.75;;;8.14;88.60
84267;BME280;74414;51.098;13.716;2024-03-02T05:04:46;98963.13;;;8.15;88.57
84267;BME280;74414;51.098;13.716;2024-03-02T05:07:14;98953.66;;;8.16;88.57
84267;BME280;74414;51.098;13.716;2024-03-02T05:09:39;98969.44;;;8.19;88.72
84267;BME280;74414;51.098;13.716;2024-03-02T05:12:05;98961.59;;;8.21;88.48
84267;BME280;74414;51.098;13.716;2024-03-02T05:14:49;98976.19;;;8.22;88.75
84267;BME280;74414;51.098;13.716;2024-03-02T05:17:14;98978.13;;;8.21;88.76
84267;BME280;74414;51.098;13.716;2024-03-02T05:19:40;98985.25;;;8.22;88.39
84267;BME280;74414;51.098;13.716;2024-03-02T05:22:05;98982.13;;;8.24;88.75
84267;BME280;74414;51.098;13.716;2024-03-02T05:24:31;98993.97;;;8.24;88.62
84267;BME280;74414;51.098;13.716;2024-03-02T05:26:56;98991.63;;;8.27;88.70
84267;BME280;74414;51.098;13.716;2024-03-02T05:29:22;98989.31;;;8.29;88.60
84267;BME280;74414;51.098;13.716;2024-03-02T05:31:48;98982.56;;;8.26;88.56
84267;BME280;74414;51.098;13.716;2024-03-02T05:34:13;98992.34;;;8.23;88.47
84267;BME280;74414;51.098;13.716;2024-03-02T05:36:39;98983.66;;;8.21;88.59
84267;BME280;74414;51.098;13.716;2024-03-02T05:39:05;98993.53;;;8.22;88.55
84267;BME280;74414;51.098;13.716;2024-03-02T05:41:32;98992.34;;;8.23;88.51
84267;BME280;74414;51.098;13.716;2024-03-02T05:43:57;98993.97;;;8.24;88.37
84267;BME280;74414;51.098;13.716;2024-03-02T05:46:22;99000.31;;;8.25;88.55
84267;BME280;74414;51.098;13.716;2024-03-02T05:48:48;99002.59;;;8.23;88.42
84267;BME280;74414;51.098;13.716;2024-03-02T05:51:13;99005.00;;;8.24;88.40
84267;BME280;74414;51.098;13.716;2024-03-02T05:53:38;99013.72;;;8.27;88.30
84267;BME280;74414;51.098;13.716;2024-03-02T05:56:05;99013.72;;;8.27;88.21
84267;BME280;74414;51.098;13.716;2024-03-02T05:58:31;99018.81;;;8.24;88.18
84267;BME280;74414;51.098;13.716;2024-03-02T06:01:13;99023.50;;;8.24;88.18
84267;BME280;74414;51.098;13.716;2024-03-02T06:03:38;99024.31;;;8.24;88.28
84267;BME280;74414;51.098;13.716;2024-03-02T06:06:04;99030.25;;;8.27;88.30
84267;BME280;74414;51.098;13.716;2024-03-02T06:08:30;99029.50;;;8.30;88.35
84267;BME280;74414;51.098;13.716;2024-03-02T06:10:56;99035.00;;;8.30;88.37
84267;BME280;74414;51.098;13.716;2024-03-02T06:13:21;99038.97;;;8.32;88.45
84267;BME280;74414;51.098;13.716;2024-03-02T06:15:47;99039.78;;;8.33;88.49
84267;BME280;74414;51.098;13.716;2024-03-02T06:18:12;99040.56;;;8.33;88.42
84267;BME280;74414;51.098;13.716;2024-03-02T06:20:37;99046.88;;;8.34;88.49
84267;BME280;74414;51.098;13.716;2024-03-02T06:23:04;99042.91;;;8.31;88.40
84267;BME280;74414;51.098;13.716;2024-03-02T06:25:29;99044.50;;;8.32;88.33
84267;BME280;74414;51.098;13.716;2024-03-02T06:27:54;99045.72;;;8.35;88.25
84267;BME280;74414;51.098;13.716;2024-03-02T06:30:20;99046.47;;;8.32;88.15
84267;BME280;74414;51.098;13.716;2024-03-02T06:32:45;99036.22;;;8.32;88.26
84267;BME280;74414;51.098;13.716;2024-03-02T06:35:10;99039.78;;;8.33;88.13
84267;BME280;74414;51.098;13.716;2024-03-02T06:37:38;99045.31;;;8.33;88.19
84267;BME280;74414;51.098;13.716;2024-03-02T06:40:04;99051.97;;;8.32;88.16
84267;BME280;74414;51.098;13.716;2024-03-02T06:42:32;99046.47;;;8.32;88.10
84267;BME280;74414;51.098;13.716;2024-03-02T06:44:59;99053.19;;;8.34;88.22
84267;BME280;74414;51.098;13.716;2024-03-02T06:47:24;99056.00;;;8.38;88.27
84267;BME280;74414;51.098;13.716;2024-03-02T06:49:49;99063.84;;;8.36;88.20
84267;BME280;74414;51.098;13.716;2024-03-02T06:52:15;99062.72;;;8.40;88.29
84267;BME280;74414;51.098;13.716;2024-03-02T06:54:40;99070.22;;;8.40;88.25
84267;BME280;74414;51.098;13.716;2024-03-02T06:57:05;99069.44;;;8.43;88.08
84267;BME280;74414;51.098;13.716;2024-03-02T06:59:31;99083.66;;;8.45;88.11
84267;BME280;74414;51.098;13.716;2024-03-02T07:01:56;99078.94;;;8.45;88.03
84267;BME280;74414;51.098;13.716;2024-03-02T07:04:22;99089.59;;;8.47;87.99
84267;BME280;74414;51.098;13.716;2024-03-02T07:06:47;99089.25;;;8.48;87.89
84267;BME280;74414;51.098;13.716;2024-03-02T07:09:12;99086.53;;;8.52;88.08
84267;BME280;74414;51.098;13.716;2024-03-02T07:11:38;99084.91;;;8.51;88.18
84267;BME280;74414;51.098;13.716;2024-03-02T07:14:03;99087.69;;;8.51;87.92
84267;BME280;74414;51.098;13.716;2024-03-02T07:16:28;99095.59;;;8.52;87.88
84267;BME280;74414;51.098;13.716;2024-03-02T07:18:55;99092.47;;;8.54;87.94
84267;BME280;74414;51.098;13.716;2024-03-02T07:21:22;99088.13;;;8.56;88.03
84267;BME280;74414;51.098;13.716;2024-03-02T07:23:48;99097.22;;;8.57;88.02
84267;BME280;74414;51.098;13.716;2024-03-02T07:26:14;99094.50;;;8.60;88.04
84267;BME280;74414;51.098;13.716;2024-03-02T07:28:41;99096.91;;;8.62;88.26
84267;BME280;74414;51.098;13.716;2024-03-02T07:31:07;99099.66;;;8.62;87.89
84267;BME280;74414;51.098;13.716;2024-03-02T07:33:33;99094.13;;;8.62;87.81
84267;BME280;74414;51.098;13.716;2024-03-02T07:35:59;99102.41;;;8.62;87.75
84267;BME280;74414;51.098;13.716;2024-03-02T07:38:26;99100.06;;;8.64;87.79
84267;BME280;74414;51.098;13.716;2024-03-02T07:40:52;99109.97;;;8.68;87.81
84267;BME280;74414;51.098;13.716;2024-03-02T07:43:18;99103.31;;;8.73;87.71
84267;BME280;74414;51.098;13.716;2024-03-02T07:45:44;99109.69;;;8.77;87.45
84267;BME280;74414;51.098;13.716;2024-03-02T07:48:10;99114.44;;;8.80;87.30
84267;BME280;74414;51.098;13.716;2024-03-02T07:50:35;99111.72;;;8.83;87.13
84267;BME280;74414;51.098;13.716;2024-03-02T07:53:01;99119.22;;;8.83;87.05
84267;BME280;74414;51.098;13.716;2024-03-02T07:55:27;99128.34;;;8.87;86.72
84267;BME280;74414;51.098;13.716;2024-03-02T07:57:52;99120.47;;;8.89;86.24
84267;BME280;74414;51.098;13.716;2024-03-02T08:00:18;99124.81;;;8.90;86.13
84267;BME280;74414;51.098;13.716;2024-03-02T08:02:43;99124.00;;;8.89;86.34
84267;BME280;74414;51.098;13.716;2024-03-02T08:05:09;99130.34;;;8.90;86.46
84267;BME280;74414;51.098;13.716;2024-03-02T08:07:34;99126.38;;;8.91;86.22
84267;BME280;74414;51.098;13.716;2024-03-02T08:10:00;99126.38;;;8.91;85.39
84267;BME280;74414;51.098;13.716;2024-03-02T08:12:25;99126.75;;;8.86;84.68
84267;BME280;74414;51.098;13.716;2024-03-02T08:14:50;99124.34;;;8.84;84.64
84267;BME280;74414;51.098;13.716;2024-03-02T08:17:16;99128.69;;;8.85;84.76
84267;BME280;74414;51.098;13.716;2024-03-02T08:19:42;99137.03;;;8.89;84.80
84267;BME280;74414;51.098;13.716;2024-03-02T08:22:07;99138.22;;;8.91;84.38
84267;BME280;74414;51.098;13.716;2024-03-02T08:24:33;99140.19;;;8.91;83.59
84267;BME280;74414;51.098;13.716;2024-03-02T08:26:59;99147.38;;;8.99;83.97
84267;BME280;74414;51.098;13.716;2024-03-02T08:29:25;99146.31;;;9.07;83.04
84267;BME280;74414;51.098;13.716;2024-03-02T08:31:50;99141.97;;;9.06;83.05
84267;BME280;74414;51.098;13.716;2024-03-02T08:34:16;99150.19;;;9.02;82.69
84267;BME280;74414;51.098;13.716;2024-03-02T08:36:41;99148.25;;;9.06;82.90
84267;BME280;74414;51.098;13.716;2024-03-02T08:39:08;99153.44;;;9.08;82.86
84267;BME280;74414;51.098;13.716;2024-03-02T08:41:46;99164.53;;;9.15;82.50
84267;BME280;74414;51.098;13.716;2024-03-02T08:44:13;99163.88;;;9.25;82.37
84267;BME280;74414;51.098;13.716;2024-03-02T08:46:39;99167.06;;;9.31;82.09
84267;BME280;74414;51.098;13.716;2024-03-02T08:49:05;99168.78;;;9.42;81.82
84267;BME280;74414;51.098;13.716;2024-03-02T08:51:30;99167.28;;;9.52;81.07
84267;BME280;74414;51.098;13.716;2024-03-02T08:53:57;99161.78;;;9.55;79.93
84267;BME280;74414;51.098;13.716;2024-03-02T08:56:23;99164.66;;;9.66;80.41
84267;BME280;74414;51.098;13.716;2024-03-02T08:58:49;99160.00;;;9.77;79.51
84267;BME280;74414;51.098;13.716;2024-03-02T09:01:15;99170.69;;;9.82;78.77
84267;BME280;74414;51.098;13.716;2024-03-02T09:03:41;99162.94;;;9.98;79.32
84267;BME280;74414;51.098;13.716;2024-03-02T09:06:10;99156.06;;;10.25;78.09
84267;BME280;74414;51.098;13.716;2024-03-02T09:08:35;99160.56;;;10.51;76.74
84267;BME280;74414;51.098;13.716;2024-03-02T09:11:02;99161.47;;;10.76;74.93
84267;BME280;74414;51.098;13.716;2024-03-02T09:13:28;99157.19;;;10.89;74.48
84267;BME280;74414;51.098;13.716;2024-03-02T09:15:54;99154.06;;;11.12;73.40
84267;BME280;74414;51.098;13.716;2024-03-02T09:18:19;99163.66;;;11.35;72.08
84267;BME280;74414;51.098;13.716;2024-03-02T09:20:44;99166.03;;;11.40;70.78
84267;BME280;74414;51.098;13.716;2024-03-02T09:23:11;99172.75;;;11.39;71.68
84267;BME280;74414;51.098;13.716;2024-03-02T09:25:36;99173.94;;;11.42;72.70
84267;BME280;74414;51.098;13.716;2024-03-02T09:28:02;99167.63;;;11.41;71.51
84267;BME280;74414;51.098;13.716;2024-03-02T09:30:28;99163.25;;;11.30;71.31
84267;BME280;74414;51.098;13.716;2024-03-02T09:32:53;99167.59;;;11.31;71.30
84267;BME280;74414;51.098;13.716;2024-03-02T09:35:19;99179.84;;;11.26;71.63
84267;BME280;74414;51.098;13.716;2024-03-02T09:37:45;99175.09;;;11.20;71.10
84267;BME280;74414;51.098;13.716;2024-03-02T09:40:10;99185.78;;;11.28;71.77
84267;BME280;74414;51.098;13.716;2024-03-02T09:42:36;99173.94;;;11.31;70.84
84267;BME280;74414;51.098;13.716;2024-03-02T09:45:01;99179.47;;;11.35;71.55
84267;BME280;74414;51.098;13.716;2024-03-02T09:47:27;99180.25;;;11.28;70.92
84267;BME280;74414;51.098;13.716;2024-03-02T09:49:52;99187.38;;;11.29;70.28
84267;BME280;74414;51.098;13.716;2024-03-02T09:52:18;99185.00;;;11.31;70.44
84267;BME280;74414;51.098;13.716;2024-03-02T09:54:43;99182.28;;;11.45;69.92
84267;BME280;74414;51.098;13.716;2024-03-02T09:57:09;99174.72;;;11.32;69.36
84267;BME280;74414;51.098;13.716;2024-03-02T09:59:34;99177.09;;;11.33;69.41
84267;BME280;74414;51.098;13.716;2024-03-02T10:02:01;99176.72;;;11.42;70.01
84267;BME280;74414;51.098;13.716;2024-03-02T10:04:28;99183.84;;;11.43;69.57
84267;BME280;74414;51.098;13.716;2024-03-02T10:07:15;99181.78;;;11.15;70.37
84267;BME280;74414;51.098;13.716;2024-03-02T10:09:48;99177.78;;;11.02;70.03
84267;BME280;74414;51.098;13.716;2024-03-02T10:12:17;99168.28;;;11.03;70.24
84267;BME280;74414;51.098;13.716;2024-03-02T10:14:43;99165.97;;;11.09;70.04
84267;BME280;74414;51.098;13.716;2024-03-02T10:17:10;99176.66;;;11.14;69.75
84267;BME280;74414;51.098;13.716;2024-03-02T10:19:36;99171.91;;;11.14;70.23
84267;BME280;74414;51.098;13.716;2024-03-02T10:22:03;99173.06;;;11.17;69.60
84267;BME280;74414;51.098;13.716;2024-03-02T10:24:41;99169.13;;;11.18;70.07
84267;BME280;74414;51.098;13.716;2024-03-02T10:27:15;99162.03;;;11.34;70.14
84267;BME280;74414;51.098;13.716;2024-03-02T10:29:40;99157.38;;;11.73;68.35
84267;BME280;74414;51.098;13.716;2024-03-02T10:32:10;99156.19;;;11.96;68.03
84267;BME280;74414;51.098;13.716;2024-03-02T10:34:40;99156.19;;;12.10;67.09
84267;BME280;74414;51.098;13.716;2024-03-02T10:37:06;99145.81;;;12.45;66.87
84267;BME280;74414;51.098;13.716;2024-03-02T10:39:35;99149.25;;;12.81;64.27
84267;BME280;74414;51.098;13.716;2024-03-02T10:42:07;99152.78;;;12.92;63.09
84267;BME280;74414;51.098;13.716;2024-03-02T10:44:32;99150.38;;;13.05;62.95
84267;BME280;74414;51.098;13.716;2024-03-02T10:47:02;99142.75;;;13.19;61.84
84267;BME280;74414;51.098;13.716;2024-03-02T10:49:32;99141.59;;;13.72;61.06
84267;BME280;74414;51.098;13.716;2024-03-02T10:51:58;99139.56;;;15.55;56.54
84267;BME280;74414;51.098;13.716;2024-03-02T10:54:24;99136.06;;;16.66;53.00
84267;BME280;74414;51.098;13.716;2024-03-02T10:56:53;99134.25;;;17.15;51.45
84267;BME280;74414;51.098;13.716;2024-03-02T11:01:55;99129.75;;;15.96;51.80
84267;BME280;74414;51.098;13.716;2024-03-02T11:04:21;99142.31;;;16.31;52.73
84267;BME280;74414;51.098;13.716;2024-03-02T11:06:50;99141.59;;;16.50;51.63
84267;BME280;74414;51.098;13.716;2024-03-02T11:09:19;99133.09;;;16.11;52.46
84267;BME280;74414;51.098;13.716;2024-03-02T11:11:50;99127.25;;;16.48;51.32
84267;BME280;74414;51.098;13.716;2024-03-02T11:14:24;99131.44;;;16.79;51.04
84267;BME280;74414;51.098;13.716;2024-03-02T11:16:51;99124.78;;;17.28;49.55
84267;BME280;74414;51.098;13.716;2024-03-02T11:19:17;99129.53;;;17.83;47.61
84267;BME280;74414;51.098;13.716;2024-03-02T11:21:43;99130.44;;;18.25;46.49
84267;BME280;74414;51.098;13.716;2024-03-02T11:26:49;99141.78;;;19.61;42.32
84267;BME280;74414;51.098;13.716;2024-03-02T11:32:01;99144.53;;;21.97;37.83
84267;BME280;74414;51.098;13.716;2024-03-02T11:34:35;99145.38;;;21.76;38.29
84267;BME280;74414;51.098;13.716;2024-03-02T11:37:01;99145.94;;;22.87;36.20
84267;BME280;74414;51.098;13.716;2024-03-02T11:39:28;99147.63;;;23.38;35.01
84267;BME280;74414;51.098;13.716;2024-03-02T11:41:54;99145.97;;;24.54;33.46
84267;BME280;74414;51.098;13.716;2024-03-02T11:44:19;99143.69;;;23.87;33.51
84267;BME280;74414;51.098;13.716;2024-03-02T11:46:46;99136.16;;;25.02;32.48
84267;BME280;74414;51.098;13.716;2024-03-02T11:49:35;99145.06;;;23.50;33.68
84267;BME280;74414;51.098;13.716;2024-03-02T11:52:01;99122.09;;;21.85;37.08
84267;BME280;74414;51.098;13.716;2024-03-02T11:54:29;99123.59;;;21.77;37.33
84267;BME280;74414;51.098;13.716;2024-03-02T11:57:01;99120.00;;;23.24;34.58
84267;BME280;74414;51.098;13.716;2024-03-02T11:59:28;99118.84;;;23.82;33.22
84267;BME280;74414;51.098;13.716;2024-03-02T12:01:54;99124.00;;;23.92;33.41
84267;BME280;74414;51.098;13.716;2024-03-02T12:04:21;99124.56;;;23.73;33.92
84267;BME280;74414;51.098;13.716;2024-03-02T12:06:48;99115.19;;;22.89;33.87
84267;BME280;74414;51.098;13.716;2024-03-02T12:09:13;99108.28;;;19.92;39.34
84267;BME280;74414;51.098;13.716;2024-03-02T12:11:40;99115.69;;;17.92;43.40
84267;BME280;74414;51.098;13.716;2024-03-02T12:14:11;99100.75;;;17.47;44.48
84267;BME280;74414;51.098;13.716;2024-03-02T12:16:38;99096.44;;;16.91;46.64
84267;BME280;74414;51.098;13.716;2024-03-02T12:19:05;99098.72;;;15.68;49.80
84267;BME280;74414;51.098;13.716;2024-03-02T12:21:30;99099.41;;;14.62;52.22
84267;BME280;74414;51.098;13.716;2024-03-02T12:23:56;99098.16;;;14.29;53.29
84267;BME280;74414;51.098;13.716;2024-03-02T12:26:22;99102.22;;;14.17;54.26
84267;BME280;74414;51.098;13.716;2024-03-02T12:28:47;99100.91;;;13.92;55.28
84267;BME280;74414;51.098;13.716;2024-03-02T12:31:13;99098.13;;;13.40;56.36
84267;BME280;74414;51.098;13.716;2024-03-02T12:33:40;99085.44;;;13.39;57.16
84267;BME280;74414;51.098;13.716;2024-03-02T12:36:09;99091.06;;;13.32;57.62
84267;BME280;74414;51.098;13.716;2024-03-02T12:38:37;99092.72;;;13.16;57.56
84267;BME280;74414;51.098;13.716;2024-03-02T12:41:04;99079.69;;;13.06;57.99
84267;BME280;74414;51.098;13.716;2024-03-02T12:43:31;99082.03;;;13.14;58.24
84267;BME280;74414;51.098;13.716;2024-03-02T12:45:57;99085.56;;;13.18;57.78
84267;BME280;74414;51.098;13.716;2024-03-02T12:48:23;99082.72;;;13.29;57.38
84267;BME280;74414;51.098;13.716;2024-03-02T12:50:49;99085.97;;;13.72;55.63
84267;BME280;74414;51.098;13.716;2024-03-02T12:53:15;99079.81;;;13.91;55.60
84267;BME280;74414;51.098;13.716;2024-03-02T12:55:41;99085.75;;;15.81;51.73
84267;BME280;74414;51.098;13.716;2024-03-02T12:58:08;99082.25;;;16.39;49.07
84267;BME280;74414;51.098;13.716;2024-03-02T13:00:34;99079.13;;;15.94;49.23
84267;BME280;74414;51.098;13.716;2024-03-02T13:03:00;99089.41;;;17.02;46.93